Time;durP1;ratioP1;P1;durP2;ratioP2;P2;SDS_P1;SDS_P2;PMS_P1;PMS_P2;Temp;Humidity;BMP_temperature;BMP_pressure;BME280_temperature;BME280_humidity;BME280_pressure;Samples;Min_cycle;Max_cycle;Signal;HPM_P1;HPM_P2
2023/10/09 00:01:26;;;;;;;8.95;4.43;;;22.30;46.00;;;;;;5110215;27;45220;-75
2023/10/09 00:03:55;;;;;;;9.43;4.75;;;22.30;46.00;;;;;;5110267;27;45193;-75
2023/10/09 00:06:30;;;;;;;11.75;4.80;;;22.30;46.10;;;;;;5110505;27;45223;-75
2023/10/09 00:09:11;;;;;;;11.23;5.07;;;22.30;46.10;;;;;;5109919;27;45419;-76
2023/10/09 00:11:41;;;;;;;10.75;4.13;;;22.20;46.00;;;;;;5109874;27;45314;-74
2023/10/09 00:14:08;;;;;;;8.70;4.25;;;22.20;46.00;;;;;;5110258;27;45373;-76
2023/10/09 00:16:40;;;;;;;9.55;4.47;;;22.20;46.10;;;;;;5110366;27;45358;-75
2023/10/09 00:19:17;;;;;;;11.27;4.88;;;22.20;46.10;;;;;;5109756;27;45345;-75
2023/10/09 00:21:45;;;;;;;8.98;3.30;;;22.20;46.10;;;;;;5109822;27;45310;-75
2023/10/09 00:24:23;;;;;;;10.77;4.15;;;22.10;46.10;;;;;;5109815;27;45320;-75
2023/10/09 00:26:51;;;;;;;10.43;3.70;;;22.10;46.20;;;;;;5109711;27;45230;-75
2023/10/09 00:29:21;;;;;;;8.80;3.97;;;22.10;46.20;;;;;;5109639;27;45637;-73
2023/10/09 00:31:55;;;;;;;10.35;3.65;;;22.10;46.20;;;;;;5109437;27;45255;-73
2023/10/09 00:34:26;;;;;;;10.82;4.97;;;22.00;46.20;;;;;;5110069;27;45411;-75
2023/10/09 00:36:53;;;;;;;9.10;3.75;;;22.00;46.20;;;;;;5109698;27;45406;-74
2023/10/09 00:39:43;;;;;;;9.90;4.20;;;22.00;46.30;;;;;;5109829;27;45326;-73
2023/10/09 00:42:12;;;;;;;8.95;4.20;;;22.00;46.20;;;;;;5109555;27;45207;-73
2023/10/09 00:44:41;;;;;;;7.85;3.45;;;22.00;46.30;;;;;;5109925;27;45339;-74
2023/10/09 00:47:20;;;;;;;9.40;3.92;;;22.00;46.30;;;;;;5109586;27;45173;-73
2023/10/09 00:49:54;;;;;;;6.47;3.40;;;22.00;46.30;;;;;;5109072;27;46425;-75
2023/10/09 00:52:31;;;;;;;9.93;3.83;;;21.90;46.30;;;;;;5109210;27;45238;-75
2023/10/09 00:55:05;;;;;;;9.30;3.63;;;21.90;46.30;;;;;;5109037;27;45248;-76
2023/10/09 00:57:34;;;;;;;9.23;3.45;;;21.90;46.30;;;;;;5109095;27;45238;-75
2023/10/09 01:00:12;;;;;;;7.32;3.08;;;21.80;46.30;;;;;;5107950;27;45298;-75
2023/10/09 01:02:42;;;;;;;6.53;3.10;;;21.80;46.40;;;;;;5108452;27;45200;-75
2023/10/09 01:05:19;;;;;;;9.15;2.80;;;21.80;47.00;;;;;;5109582;27;45356;-75
2023/10/09 01:07:47;;;;;;;8.60;3.40;;;21.80;46.40;;;;;;5109116;27;45418;-75
2023/10/09 01:10:35;;;;;;;8.35;3.10;;;21.80;46.40;;;;;;5107670;27;46317;-74
2023/10/09 01:13:03;;;;;;;5.93;3.10;;;21.70;46.40;;;;;;5108835;27;45323;-75
2023/10/09 01:15:43;;;;;;;5.85;3.05;;;21.70;46.50;;;;;;5109227;27;45304;-75
2023/10/09 01:18:11;;;;;;;8.07;2.95;;;21.70;46.50;;;;;;5109381;27;45564;-75
2023/10/09 01:20:41;;;;;;;7.55;2.97;;;21.70;46.50;;;;;;5109066;27;47809;-75
2023/10/09 01:23:11;;;;;;;6.28;2.88;;;21.70;46.50;;;;;;5108902;27;45248;-74
2023/10/09 01:25:49;;;;;;;5.50;3.10;;;21.70;46.50;;;;;;5108748;27;45311;-74
2023/10/09 01:28:16;;;;;;;7.28;2.85;;;21.60;46.40;;;;;;5108755;27;45590;-74
2023/10/09 01:30:47;;;;;;;6.75;3.40;;;21.60;46.50;;;;;;5108685;27;46657;-75
2023/10/09 01:33:21;;;;;;;6.10;2.78;;;21.60;46.50;;;;;;5108597;27;45450;-75
2023/10/09 01:35:51;;;;;;;5.93;3.25;;;21.60;46.50;;;;;;5108942;27;45291;-75
2023/10/09 01:38:30;;;;;;;6.13;2.75;;;21.60;46.50;;;;;;5108779;27;45465;-75
2023/10/09 01:41:04;;;;;;;7.28;3.35;;;21.50;46.50;;;;;;5108364;27;47760;-74
2023/10/09 01:43:34;;;;;;;6.28;2.97;;;21.50;46.50;;;;;;5108632;27;45209;-73
2023/10/09 01:46:02;;;;;;;4.20;2.47;;;21.50;46.50;;;;;;5108652;27;45306;-74
2023/10/09 01:48:33;;;;;;;7.43;2.80;;;21.50;46.50;;;;;;5107862;27;45618;-74
2023/10/09 01:51:00;;;;;;;5.30;2.60;;;21.50;46.40;;;;;;5108396;27;46957;-74
2023/10/09 01:53:30;;;;;;;6.32;2.42;;;21.50;46.50;;;;;;5108368;27;45284;-73
2023/10/09 01:55:59;;;;;;;4.05;2.60;;;21.40;46.50;;;;;;5107942;27;45230;-73
2023/10/09 01:58:27;;;;;;;6.70;3.20;;;21.40;46.50;;;;;;5107796;27;45306;-74
2023/10/09 02:00:55;;;;;;;6.70;2.58;;;21.40;46.50;;;;;;5108037;27;45179;-75
2023/10/09 02:03:24;;;;;;;4.68;2.85;;;21.40;46.50;;;;;;5108415;27;45199;-76
2023/10/09 02:05:53;;;;;;;4.85;3.00;;;21.40;46.50;;;;;;5108277;27;45318;-76
2023/10/09 02:08:21;;;;;;;5.47;2.67;;;21.30;46.40;;;;;;5108202;27;44920;-75
2023/10/09 02:10:50;;;;;;;7.22;2.65;;;21.30;46.50;;;;;;5108416;27;48045;-75
2023/10/09 02:13:17;;;;;;;5.80;2.65;;;21.30;46.60;;;;;;5108372;27;45238;-75
2023/10/09 02:15:56;;;;;;;5.03;2.42;;;21.30;46.50;;;;;;5108465;27;45141;-74
2023/10/09 02:18:39;;;;;;;5.90;2.50;;;21.30;46.60;;;;;;5108497;27;45162;-74
2023/10/09 02:21:13;;;;;;;4.55;2.28;;;21.30;46.60;;;;;;5107981;27;45401;-74
2023/10/09 02:23:46;;;;;;;6.28;2.33;;;21.20;46.50;;;;;;5107916;27;45172;-74
2023/10/09 02:26:19;;;;;;;3.67;2.50;;;21.20;46.60;;;;;;5107914;27;45237;-75
2023/10/09 02:28:52;;;;;;;4.38;2.22;;;21.20;46.60;;;;;;5108061;27;45278;-73
2023/10/09 02:31:22;;;;;;;3.75;2.30;;;21.20;46.60;;;;;;5107729;27;45161;-73
2023/10/09 02:33:51;;;;;;;4.95;2.28;;;21.20;46.70;;;;;;5107988;27;46603;-74
2023/10/09 02:36:18;;;;;;;4.53;2.42;;;21.20;46.60;;;;;;5107993;27;45255;-75
2023/10/09 02:38:48;;;;;;;5.63;2.00;;;21.10;46.60;;;;;;5108012;27;45303;-74
2023/10/09 02:41:22;;;;;;;5.35;3.00;;;21.10;46.60;;;;;;5107689;27;45279;-75
2023/10/09 02:43:50;;;;;;;5.85;2.50;;;21.10;46.70;;;;;;5107600;27;45299;-75
2023/10/09 02:46:19;;;;;;;4.70;1.90;;;21.10;46.70;;;;;;5107549;27;45252;-75
2023/10/09 02:48:50;;;;;;;3.97;1.95;;;21.10;46.70;;;;;;5107692;27;45326;-75
2023/10/09 02:51:31;;;;;;;4.63;2.45;;;21.00;46.70;;;;;;5107797;27;45122;-75
2023/10/09 02:53:59;;;;;;;6.85;2.25;;;21.00;46.60;;;;;;5107672;27;45425;-75
2023/10/09 02:56:36;;;;;;;6.00;2.38;;;21.00;46.70;;;;;;5107864;27;45264;-75
2023/10/09 02:59:08;;;;;;;5.65;2.47;;;21.00;46.70;;;;;;5110006;27;45596;-74
2023/10/09 03:01:37;;;;;;;4.70;2.20;;;21.00;46.60;;;;;;5111505;27;45199;-75
2023/10/09 03:04:05;;;;;;;3.00;1.92;;;21.00;46.70;;;;;;5111175;27;45239;-74
2023/10/09 03:06:33;;;;;;;7.30;2.47;;;21.00;47.40;;;;;;5111193;27;45244;-75
2023/10/09 03:09:01;;;;;;;5.38;1.92;;;20.90;46.70;;;;;;5111291;27;45467;-75
2023/10/09 03:11:32;;;;;;;3.35;1.80;;;20.90;46.70;;;;;;5110780;27;47072;-75
2023/10/09 03:13:58;;;;;;;3.85;1.73;;;20.90;46.70;;;;;;5111030;27;45426;-75
2023/10/09 03:16:27;;;;;;;6.32;2.20;;;20.90;46.80;;;;;;5110480;27;45176;-75
2023/10/09 03:18:54;;;;;;;3.88;2.03;;;20.90;46.80;;;;;;5110958;27;45123;-74
2023/10/09 03:21:21;;;;;;;7.13;2.47;;;20.90;47.30;;;;;;5110838;27;46643;-75
2023/10/09 03:23:49;;;;;;;6.60;2.33;;;20.80;47.30;;;;;;5110717;27;45464;-75
2023/10/09 03:26:17;;;;;;;3.47;1.90;;;20.80;46.70;;;;;;5111072;27;45144;-75
2023/10/09 03:28:46;;;;;;;5.57;1.85;;;20.80;46.80;;;;;;5110930;27;45242;-74
2023/10/09 03:31:12;;;;;;;5.30;2.10;;;20.80;46.80;;;;;;5110597;27;45551;-75
2023/10/09 03:33:39;;;;;;;4.60;2.08;;;20.80;46.80;;;;;;5110500;27;45360;-75
2023/10/09 03:36:09;;;;;;;4.72;1.63;;;20.80;46.80;;;;;;5110486;27;45191;-75
2023/10/09 03:38:36;;;;;;;4.35;2.17;;;20.80;46.80;;;;;;5110879;27;45291;-75
2023/10/09 03:41:05;;;;;;;4.35;1.50;;;20.70;46.80;;;;;;5110482;27;46972;-75
2023/10/09 03:43:37;;;;;;;5.50;2.17;;;20.70;46.80;;;;;;5110547;27;45216;-74
2023/10/09 03:46:13;;;;;;;4.25;2.10;;;20.70;46.80;;;;;;5110777;27;45355;-75
2023/10/09 03:48:43;;;;;;;3.80;2.25;;;20.70;46.90;;;;;;5110557;27;45196;-75
2023/10/09 03:51:12;;;;;;;5.30;2.00;;;20.70;46.90;;;;;;5110269;27;46439;-75
2023/10/09 03:53:39;;;;;;;6.15;2.13;;;20.70;46.90;;;;;;5110260;27;45316;-75
2023/10/09 03:56:11;;;;;;;5.43;1.67;;;20.60;46.80;;;;;;5110292;27;45357;-75
2023/10/09 03:58:39;;;;;;;4.60;2.00;;;20.60;46.80;;;;;;5110570;27;45443;-75
2023/10/09 04:01:16;;;;;;;5.15;2.22;;;20.60;46.80;;;;;;5110416;27;46725;-76
2023/10/09 04:03:43;;;;;;;4.22;1.98;;;20.60;46.90;;;;;;5110446;27;45208;-75
2023/10/09 04:06:11;;;;;;;4.35;2.15;;;20.60;46.90;;;;;;5110700;27;45223;-75
2023/10/09 04:08:39;;;;;;;4.90;2.30;;;20.60;46.90;;;;;;5110626;27;45296;-75
2023/10/09 04:11:15;;;;;;;4.57;1.92;;;20.60;46.90;;;;;;5109253;27;45469;-75
2023/10/09 04:13:45;;;;;;;3.15;1.80;;;20.60;46.80;;;;;;5110012;27;45927;-75
2023/10/09 04:18:57;;;;;;;5.68;1.88;;;20.50;46.80;;;;;;5102395;27;45576;-75
2023/10/09 04:21:34;;;;;;;5.50;2.00;;;20.50;46.90;;;;;;5111221;27;45287;-74
2023/10/09 04:24:09;;;;;;;7.28;2.50;;;20.50;46.90;;;;;;5109433;27;45191;-73
2023/10/09 04:26:37;;;;;;;3.35;1.92;;;20.50;46.80;;;;;;5109713;27;45200;-73
2023/10/09 04:29:06;;;;;;;3.55;2.08;;;20.50;46.90;;;;;;5109281;27;45624;-75
2023/10/09 04:31:37;;;;;;;3.45;2.05;;;20.50;47.00;;;;;;5109516;27;46980;-76
2023/10/09 04:34:22;;;;;;;7.03;2.25;;;20.50;47.20;;;;;;5109841;27;45409;-75
2023/10/09 04:36:51;;;;;;;8.30;2.00;;;20.40;47.00;;;;;;5109373;27;45215;-75
2023/10/09 04:39:35;;;;;;;4.60;2.15;;;20.40;47.00;;;;;;5109749;27;45403;-75
2023/10/09 04:47:37;;;;;;;6.45;2.05;;;20.40;47.00;;;;;;5106656;27;45331;-75
2023/10/09 04:50:08;;;;;;;5.53;2.10;;;20.40;47.10;;;;;;5110129;27;45453;-75
2023/10/09 04:52:53;;;;;;;4.32;2.10;;;20.40;47.00;;;;;;5108550;27;46297;-74
2023/10/09 04:55:24;;;;;;;4.57;2.00;;;20.40;47.10;;;;;;5109096;27;45304;-75
2023/10/09 04:58:02;;;;;;;5.25;1.92;;;20.30;47.00;;;;;;5109167;27;45193;-75
2023/10/09 05:03:28;;;;;;;2.20;1.75;;;20.30;47.00;;;;;;5105328;27;45335;-73
2023/10/09 05:06:20;;;;;;;4.18;1.88;;;20.30;47.10;;;;;;5104438;27;45464;-74
2023/10/09 05:08:47;;;;;;;6.97;2.05;;;20.30;47.00;;;;;;5108036;27;45423;-76
2023/10/09 05:11:34;;;;;;;7.28;2.10;;;20.30;47.10;;;;;;5124976;27;45387;-76
2023/10/09 05:14:11;;;;;;;4.35;1.80;;;20.30;47.20;;;;;;5126858;27;47504;-76
2023/10/09 05:16:48;;;;;;;4.05;1.50;;;20.30;47.20;;;;;;5126985;27;44780;-76
2023/10/09 05:19:33;;;;;;;3.83;1.92;;;20.30;47.20;;;;;;5127322;27;45395;-76
2023/10/09 05:22:04;;;;;;;5.80;1.88;;;20.30;47.20;;;;;;5127488;27;45473;-76
2023/10/09 05:24:43;;;;;;;4.28;1.63;;;20.20;47.10;;;;;;5127540;27;46852;-76
2023/10/09 05:27:17;;;;;;;1.90;1.50;;;20.20;47.10;;;;;;5111019;27;45394;-76
2023/10/09 05:29:59;;;;;;;10.00;2.15;;;20.20;47.20;;;;;;5101728;27;45634;-76
2023/10/09 05:32:34;;;;;;;3.13;1.70;;;20.20;47.20;;;;;;5100583;27;45130;-76
2023/10/09 05:35:15;;;;;;;4.97;1.92;;;20.20;47.20;;;;;;5109556;27;45680;-78
2023/10/09 05:37:45;;;;;;;6.20;2.08;;;20.20;47.20;;;;;;5109371;27;45411;-77
2023/10/09 05:40:23;;;;;;;2.22;1.50;;;20.20;47.10;;;;;;5109340;27;45362;-76
2023/10/09 05:42:59;;;;;;;4.20;1.83;;;20.20;47.20;;;;;;5109433;27;45496;-76
2023/10/09 05:54:11;;;;;;;5.82;1.60;;;20.20;47.80;;;;;;5090970;27;45297;-76
2023/10/09 06:04:55;;;;;;;4.50;2.00;;;20.20;47.20;;;;;;5107407;27;45306;-77
2023/10/09 06:07:40;;;;;;;4.78;2.00;;;20.10;47.20;;;;;;5109874;27;45440;-76
2023/10/09 06:10:17;;;;;;;5.57;2.08;;;20.20;47.30;;;;;;5109356;27;45366;-76
2023/10/09 06:12:56;;;;;;;3.72;1.67;;;20.20;47.30;;;;;;5108551;27;45323;-76
2023/10/09 06:21:39;;;;;;;2.15;1.60;;;20.10;47.30;;;;;;5113508;27;45304;-75
2023/10/09 06:24:09;;;;;;;4.00;1.50;;;20.20;47.30;;;;;;5112551;27;45258;-75
2023/10/09 06:26:36;;;;;;;3.30;1.90;;;20.20;47.30;;;;;;5119056;27;45384;-76
2023/10/09 06:29:14;;;;;;;5.35;1.65;;;20.20;47.30;;;;;;5111184;27;45726;-75
2023/10/09 06:32:16;;;;;;;1.75;1.40;;;20.20;47.40;;;;;;5092461;27;45394;-75
2023/10/09 06:34:45;;;;;;;4.28;2.00;;;20.10;47.30;;;;;;5107390;27;45391;-75
2023/10/09 06:37:34;;;;;;;5.30;2.10;;;20.20;47.30;;;;;;5107358;27;45286;-75
2023/10/09 06:41:18;;;;;;;4.53;1.85;;;20.10;47.30;;;;;;5107163;27;45349;-76
2023/10/09 06:43:07;;;;;;;2.67;1.83;;;20.20;47.40;;;;;;5107475;27;45342;-74
2023/10/09 06:45:44;;;;;;;4.40;1.70;;;20.10;47.30;;;;;;5090361;27;45537;-74
2023/10/09 06:48:40;;;;;;;4.60;2.25;;;20.10;47.30;;;;;;5107998;27;45323;-75
2023/10/09 06:51:12;;;;;;;5.45;1.80;;;20.10;47.40;;;;;;5107398;27;45503;-74
2023/10/09 06:57:12;;;;;;;3.92;1.88;;;20.10;47.40;;;;;;5105157;27;45260;-74
2023/10/09 06:59:21;;;;;;;4.47;2.15;;;20.10;47.50;;;;;;5107112;27;44963;-74
2023/10/09 07:02:25;;;;;;;2.97;1.88;;;20.20;47.50;;;;;;5107403;27;45588;-74
2023/10/09 07:04:46;;;;;;;4.50;1.70;;;20.20;47.50;;;;;;5086778;28;45296;-74
2023/10/09 07:07:16;;;;;;;7.15;2.38;;;20.20;47.50;;;;;;5087012;27;45310;-74
2023/10/09 07:09:45;;;;;;;5.53;1.60;;;20.20;47.50;;;;;;5104387;27;45288;-73
2023/10/09 07:12:20;;;;;;;4.38;1.60;;;20.10;47.50;;;;;;5105043;27;45634;-75
2023/10/09 07:16:23;;;;;;;4.25;1.90;;;20.10;47.50;;;;;;5107125;27;45420;-74
2023/10/09 07:17:52;;;;;;;4.53;1.88;;;20.20;47.60;;;;;;5106695;27;45208;-75
2023/10/09 07:23:13;;;;;;;4.93;1.73;;;20.20;47.50;;;;;;5106335;27;46371;-75
2023/10/09 07:25:54;;;;;;;4.40;1.65;;;20.20;47.50;;;;;;5106176;27;45472;-74
2023/10/09 07:28:42;;;;;;;8.32;2.10;;;20.20;47.50;;;;;;5105981;27;45166;-74
2023/10/09 07:31:23;;;;;;;7.70;2.03;;;20.20;47.50;;;;;;5091812;27;45323;-75
2023/10/09 07:33:56;;;;;;;4.43;1.88;;;20.20;47.50;;;;;;5107734;27;46630;-74
2023/10/09 07:36:37;;;;;;;4.22;2.13;;;20.30;47.50;;;;;;5107333;27;45194;-76
2023/10/09 07:39:13;;;;;;;7.05;1.45;;;20.30;47.50;;;;;;5106990;27;45356;-75
2023/10/09 07:41:55;;;;;;;4.40;1.70;;;20.30;47.50;;;;;;5106923;27;45345;-75
2023/10/09 07:44:37;;;;;;;4.70;1.77;;;20.30;47.40;;;;;;5106756;27;46711;-76
2023/10/09 07:49:59;;;;;;;4.55;1.50;;;20.30;47.30;;;;;;5061638;27;45398;-76
2023/10/09 07:52:26;;;;;;;3.85;1.88;;;20.30;47.40;;;;;;5110349;27;45481;-76
2023/10/09 07:55:01;;;;;;;1.90;1.30;;;20.30;47.40;;;;;;5109989;27;45314;-74
2023/10/09 07:57:38;;;;;;;3.55;1.70;;;20.40;47.40;;;;;;5110193;27;45408;-76
2023/10/09 08:00:35;;;;;;;5.80;2.35;;;20.30;47.30;;;;;;5111128;27;45331;-77
2023/10/09 08:03:02;;;;;;;8.38;2.17;;;20.40;47.90;;;;;;5113952;27;45257;-76
2023/10/09 08:05:34;;;;;;;4.03;1.92;;;20.40;47.90;;;;;;5110856;27;46600;-74
2023/10/09 08:08:29;;;;;;;4.95;1.63;;;20.50;47.80;;;;;;5112072;27;45229;-73
2023/10/09 08:14:00;;;;;;;6.60;2.33;;;20.70;47.80;;;;;;5111159;27;45315;-73
2023/10/09 08:16:36;;;;;;;5.22;2.38;;;20.80;47.60;;;;;;5112189;27;46392;-78
2023/10/09 08:19:20;;;;;;;15.50;2.88;;;20.90;48.10;;;;;;5113196;27;45353;-73
2023/10/09 08:22:37;;;;;;;11.55;2.75;;;21.00;49.60;;;;;;5110822;27;45310;-77
2023/10/09 08:24:40;;;;;;;6.40;2.45;;;21.00;48.10;;;;;;5103048;27;45467;-75
2023/10/09 08:30:12;;;;;;;7.22;2.30;;;21.10;48.60;;;;;;5093765;27;45406;-72
2023/10/09 08:32:42;;;;;;;7.28;2.22;;;21.20;48.40;;;;;;5091372;27;45203;-81
2023/10/09 08:35:29;;;;;;;4.90;2.70;;;21.30;48.00;;;;;;5109790;27;45426;-75
2023/10/09 08:38:03;;;;;;;9.52;2.47;;;21.40;47.90;;;;;;5109268;27;46475;-70
2023/10/09 08:40:37;;;;;;;8.75;2.20;;;21.50;47.80;;;;;;5109752;27;45437;-73
2023/10/09 08:43:09;;;;;;;9.10;2.47;;;21.60;47.80;;;;;;5109256;27;45239;-71
2023/10/09 08:45:45;;;;;;;8.27;2.72;;;21.70;47.60;;;;;;5109646;27;45555;-76
2023/10/09 08:48:27;;;;;;;;;;;;;;;;;;;;;
2023/10/09 08:53:42;;;;;;;11.35;2.97;;;21.80;47.40;;;;;;5067491;27;45399;-79
2023/10/09 08:56:10;;;;;;;8.13;3.35;;;21.80;47.20;;;;;;5109385;27;44869;-79
2023/10/09 08:58:38;;;;;;;7.55;2.88;;;21.90;47.00;;;;;;5103249;27;47326;-78
2023/10/09 09:01:05;;;;;;;8.10;2.60;;;21.90;46.80;;;;;;5113135;27;45391;-74
2023/10/09 09:03:40;;;;;;;11.50;2.60;;;21.90;46.70;;;;;;5111229;27;45218;-79
2023/10/09 09:06:07;;;;;;;8.93;2.78;;;22.00;46.70;;;;;;5105937;27;45243;-78
2023/10/09 09:08:36;;;;;;;8.45;2.90;;;22.00;46.60;;;;;;5110180;27;46510;-78
2023/10/09 09:11:11;;;;;;;4.78;2.28;;;22.10;46.50;;;;;;5111562;27;45408;-77
2023/10/09 09:13:41;;;;;;;5.18;2.63;;;22.10;46.30;;;;;;5105178;27;45413;-80
2023/10/09 09:16:15;;;;;;;9.32;2.45;;;22.20;46.30;;;;;;5111146;27;45517;-80
2023/10/09 09:19:03;;;;;;;7.38;2.70;;;22.20;46.20;;;;;;5110033;27;46661;-83
2023/10/09 09:21:37;;;;;;;4.85;2.38;;;22.20;46.10;;;;;;5114738;27;45460;-82
2023/10/09 09:24:14;;;;;;;7.30;2.75;;;22.30;46.00;;;;;;5111101;27;45212;-82
2023/10/09 09:26:45;;;;;;;8.48;2.40;;;22.30;45.80;;;;;;5110262;27;45274;-81
2023/10/09 09:29:13;;;;;;;6.78;2.45;;;22.40;45.80;;;;;;5109796;27;46384;-76
2023/10/09 09:31:51;;;;;;;6.70;2.03;;;22.50;45.80;;;;;;5113428;27;45382;-80
2023/10/09 09:34:25;;;;;;;4.30;2.03;;;22.50;45.70;;;;;;5109634;27;45320;-78
2023/10/09 09:36:54;;;;;;;8.05;2.40;;;22.60;45.60;;;;;;5109175;27;45604;-77
2023/10/09 09:39:27;;;;;;;10.55;2.30;;;22.60;46.00;;;;;;5108951;27;45279;-76
2023/10/09 09:41:57;;;;;;;6.80;2.33;;;22.70;46.70;;;;;;5109552;27;45321;-78
2023/10/09 09:44:30;;;;;;;8.10;2.30;;;22.90;46.90;;;;;;5108846;27;45145;-80
2023/10/09 09:46:59;;;;;;;9.20;2.38;;;23.00;46.90;;;;;;5109045;27;45192;-76
2023/10/09 09:49:31;;;;;;;7.50;2.17;;;23.10;47.00;;;;;;5108034;27;45444;-75
2023/10/09 09:51:59;;;;;;;5.78;2.15;;;23.20;46.90;;;;;;5107983;27;46071;-73
2023/10/09 09:54:28;;;;;;;5.13;2.47;;;23.30;46.90;;;;;;5107494;27;45456;-72
2023/10/09 09:56:54;;;;;;;7.10;2.38;;;23.40;46.90;;;;;;5108202;27;45269;-72
2023/10/09 09:59:26;;;;;;;4.93;2.03;;;23.50;46.80;;;;;;5108896;27;45208;-71
2023/10/09 10:01:57;;;;;;;7.68;2.17;;;23.50;46.50;;;;;;5105677;27;45578;-73
2023/10/09 10:04:28;;;;;;;9.98;2.65;;;23.60;47.10;;;;;;5107669;27;45209;-72
2023/10/09 10:06:55;;;;;;;7.20;2.10;;;23.70;46.80;;;;;;5108846;27;45282;-72
2023/10/09 10:09:44;;;;;;;11.57;2.80;;;23.80;47.50;;;;;;5104331;27;45523;-72
2023/10/09 10:12:12;;;;;;;10.35;2.05;;;23.90;46.80;;;;;;5102434;27;45281;-74
2023/10/09 10:15:07;;;;;;;5.05;2.40;;;24.00;46.70;;;;;;5109944;27;45433;-75
2023/10/09 10:17:38;;;;;;;7.05;2.90;;;24.00;46.50;;;;;;5106126;27;45272;-74
2023/10/09 10:20:26;;;;;;;9.63;2.40;;;24.10;46.90;;;;;;5107363;27;46992;-73
2023/10/09 10:23:17;;;;;;;13.43;2.55;;;24.10;47.10;;;;;;5108952;27;45308;-71
2023/10/09 10:25:49;;;;;;;9.13;2.90;;;24.10;47.00;;;;;;5098821;27;45377;-75
2023/10/09 10:31:00;;;;;;;10.85;2.45;;;24.20;46.80;;;;;;5083308;27;45827;-71
2023/10/09 10:33:28;;;;;;;8.73;2.03;;;24.40;46.50;;;;;;5103985;27;45382;-72
2023/10/09 10:35:57;;;;;;;13.02;3.08;;;24.50;46.30;;;;;;5101708;27;45203;-72
2023/10/09 10:38:24;;;;;;;6.10;1.67;;;24.60;46.40;;;;;;5107086;27;45230;-71
2023/10/09 10:40:57;;;;;;;7.53;2.15;;;24.70;46.40;;;;;;5106525;27;46598;-71
2023/10/09 10:43:32;;;;;;;9.23;2.28;;;24.80;46.20;;;;;;5104517;27;45328;-73
2023/10/09 10:46:14;;;;;;;10.85;2.75;;;24.80;46.10;;;;;;5101457;27;45372;-74
2023/10/09 10:48:46;;;;;;;8.05;2.58;;;24.80;45.90;;;;;;5093844;27;45386;-74
2023/10/09 10:51:15;;;;;;;8.80;2.70;;;24.80;46.00;;;;;;5103653;27;45528;-74
2023/10/09 10:53:54;;;;;;;10.63;2.70;;;24.90;46.10;;;;;;5100249;27;45377;-76
2023/10/09 10:56:34;;;;;;;9.40;2.88;;;25.00;46.20;;;;;;5100363;27;45407;-74
2023/10/09 10:59:12;;;;;;;10.88;2.88;;;25.00;46.70;;;;;;5098067;27;45642;-73
2023/10/09 11:01:53;;;;;;;13.88;3.95;;;25.10;45.80;;;;;;5097191;27;46347;-74
2023/10/09 11:04:38;;;;;;;11.48;2.97;;;25.10;45.50;;;;;;5097014;27;45249;-70
2023/10/09 11:07:12;;;;;;;10.55;2.85;;;25.10;45.20;;;;;;5102206;27;45414;-71
2023/10/09 11:10:08;;;;;;;8.07;2.92;;;25.20;45.00;;;;;;5101352;27;45360;-72
2023/10/09 11:12:45;;;;;;;8.00;3.55;;;25.20;44.90;;;;;;5104295;27;45237;-74
2023/10/09 11:15:29;;;;;;;8.90;3.85;;;25.30;45.50;;;;;;5097615;27;45469;-71
2023/10/09 11:18:04;;;;;;;8.85;3.15;;;25.40;45.10;;;;;;5102427;27;45445;-75
2023/10/09 11:20:33;;;;;;;9.55;3.45;;;25.60;44.90;;;;;;5105313;27;45612;-76
2023/10/09 11:23:15;;;;;;;9.07;2.63;;;25.90;44.10;;;;;;5100879;27;47282;-71
2023/10/09 11:25:50;;;;;;;7.90;3.30;;;26.00;43.60;;;;;;5095271;27;45410;-71
2023/10/09 11:28:42;;;;;;;10.07;2.75;;;26.10;43.00;;;;;;5099369;27;45159;-70
2023/10/09 11:31:11;;;;;;;14.00;3.38;;;26.10;43.00;;;;;;5097101;27;45609;-72
2023/10/09 11:33:48;;;;;;;14.18;3.30;;;26.10;43.20;;;;;;5102807;27;46425;-70
2023/10/09 11:36:14;;;;;;;8.10;3.10;;;26.20;43.00;;;;;;5101826;27;45440;-70
2023/10/09 11:38:45;;;;;;;9.38;2.78;;;26.20;42.90;;;;;;5104613;27;45298;-72
2023/10/09 11:41:24;;;;;;;7.88;2.75;;;26.10;42.90;;;;;;5107245;27;45461;-73
2023/10/09 11:43:54;;;;;;;7.90;3.25;;;26.00;42.70;;;;;;5109172;27;45290;-73
2023/10/09 11:46:48;;;;;;;9.43;2.90;;;26.00;43.00;;;;;;5108971;27;45524;-72
2023/10/09 11:49:25;;;;;;;7.93;2.72;;;26.00;43.20;;;;;;5106475;27;45418;-72
2023/10/09 11:54:36;;;;;;;8.43;3.20;;;25.90;43.20;;;;;;5106308;27;45475;-72
2023/10/09 11:57:03;;;;;;;8.52;3.00;;;25.90;43.40;;;;;;5089492;27;45380;-72
2023/10/09 11:59:34;;;;;;;10.82;3.30;;;25.80;43.50;;;;;;5094831;27;45430;-73
2023/10/09 12:02:03;;;;;;;12.43;3.15;;;25.80;43.40;;;;;;5101765;27;45264;-71
2023/10/09 12:04:31;;;;;;;9.88;3.00;;;25.80;43.50;;;;;;5097334;27;45653;-71
2023/10/09 12:07:06;;;;;;;11.75;3.20;;;25.80;43.40;;;;;;5088789;27;45228;-72
2023/10/09 12:09:35;;;;;;;12.02;3.38;;;25.80;43.60;;;;;;5105724;27;45263;-72
2023/10/09 12:12:03;;;;;;;7.93;2.80;;;25.80;43.80;;;;;;5105661;27;45554;-72
2023/10/09 12:14:33;;;;;;;6.90;2.60;;;25.80;43.90;;;;;;5088746;28;46477;-71
2023/10/09 12:17:05;;;;;;;18.15;3.72;;;25.80;43.90;;;;;;5097930;27;45283;-72
2023/10/09 12:19:33;;;;;;;11.02;3.42;;;25.80;43.80;;;;;;5102940;27;45311;-72
2023/10/09 12:22:01;;;;;;;11.30;3.85;;;25.80;44.00;;;;;;5095967;27;45449;-72
2023/10/09 12:24:30;;;;;;;11.60;4.43;;;25.80;44.00;;;;;;5094999;27;45643;-72
2023/10/09 12:26:58;;;;;;;12.07;3.72;;;25.80;44.00;;;;;;5094930;27;45700;-70
2023/10/09 12:29:29;;;;;;;8.55;3.38;;;25.80;44.10;;;;;;5101374;27;45198;-71
2023/10/09 12:31:59;;;;;;;11.80;3.38;;;25.80;44.30;;;;;;5091810;27;45329;-70
2023/10/09 12:34:26;;;;;;;14.18;4.18;;;25.80;44.20;;;;;;5097968;27;45683;-70
2023/10/09 12:36:54;;;;;;;10.73;3.30;;;25.80;44.20;;;;;;5105932;27;45328;-71
2023/10/09 12:39:21;;;;;;;10.88;3.58;;;25.80;44.30;;;;;;5096819;27;45284;-71
2023/10/09 12:41:48;;;;;;;8.55;2.50;;;25.80;44.20;;;;;;5098650;27;45542;-72
2023/10/09 12:44:18;;;;;;;9.88;2.65;;;25.90;44.30;;;;;;5110300;27;45406;-72
2023/10/09 12:46:51;;;;;;;11.40;2.75;;;26.00;44.40;;;;;;5109589;27;45327;-71
2023/10/09 12:49:19;;;;;;;13.50;3.20;;;26.10;44.30;;;;;;5109458;27;45374;-72
2023/10/09 12:51:46;;;;;;;11.52;2.58;;;26.20;44.10;;;;;;5093953;27;45177;-72
2023/10/09 12:54:14;;;;;;;7.05;2.05;;;26.30;43.90;;;;;;5109409;27;46190;-73
2023/10/09 12:56:41;;;;;;;12.15;2.53;;;26.30;43.80;;;;;;5101500;27;45462;-73
2023/10/09 12:59:14;;;;;;;6.10;2.90;;;26.30;43.90;;;;;;5100485;27;46046;-70
2023/10/09 13:01:49;;;;;;;7.78;2.78;;;26.40;44.10;;;;;;5095266;27;45665;-69
2023/10/09 13:04:17;;;;;;;6.22;2.40;;;26.40;44.10;;;;;;5095203;27;46402;-74
2023/10/09 13:06:44;;;;;;;6.03;2.22;;;26.40;44.20;;;;;;5105623;27;45438;-74
2023/10/09 13:09:12;;;;;;;8.98;2.67;;;26.50;44.30;;;;;;5106991;27;45344;-71
2023/10/09 13:11:40;;;;;;;7.82;3.13;;;26.50;44.20;;;;;;5106507;27;45348;-71
2023/10/09 13:14:11;;;;;;;11.15;2.65;;;26.60;44.20;;;;;;5106844;27;46742;-74
2023/10/09 13:16:38;;;;;;;7.78;2.75;;;26.60;43.90;;;;;;5106011;27;46057;-71
2023/10/09 13:19:09;;;;;;;10.88;2.65;;;26.70;44.20;;;;;;5107245;27;45353;-73
2023/10/09 13:21:38;;;;;;;7.90;2.45;;;26.90;44.50;;;;;;5107581;27;45461;-71
2023/10/09 13:24:06;;;;;;;7.88;2.30;;;27.00;43.40;;;;;;5106749;27;45722;-73
2023/10/09 13:26:35;;;;;;;11.77;2.92;;;27.10;43.20;;;;;;5107807;27;45427;-76
2023/10/09 13:29:03;;;;;;;12.18;3.10;;;27.20;42.90;;;;;;5108145;27;45358;-75
2023/10/09 13:31:31;;;;;;;8.25;2.90;;;27.30;42.50;;;;;;5109028;27;45342;-73
2023/10/09 13:33:59;;;;;;;7.53;2.50;;;27.30;43.00;;;;;;5106547;27;46247;-75
2023/10/09 13:36:32;;;;;;;11.13;3.03;;;27.30;43.60;;;;;;5107869;27;45347;-74
2023/10/09 13:39:02;;;;;;;9.40;2.72;;;27.30;43.10;;;;;;5106027;27;45527;-73
2023/10/09 13:41:29;;;;;;;12.52;2.63;;;27.30;43.10;;;;;;5104298;27;45579;-74
2023/10/09 13:43:56;;;;;;;7.05;2.70;;;27.30;42.90;;;;;;5106564;27;45245;-73
2023/10/09 13:46:24;;;;;;;7.72;2.72;;;27.20;42.50;;;;;;5107444;27;45405;-77
2023/10/09 13:48:52;;;;;;;8.20;2.50;;;27.10;43.10;;;;;;5107909;27;45396;-78
2023/10/09 13:51:23;;;;;;;10.35;2.47;;;27.10;43.20;;;;;;5105982;27;45570;-74
2023/10/09 13:53:51;;;;;;;5.57;2.20;;;27.10;43.20;;;;;;5105606;27;45559;-75
2023/10/09 13:56:22;;;;;;;13.95;2.53;;;27.10;43.40;;;;;;5103498;27;45357;-75
2023/10/09 13:58:50;;;;;;;10.30;3.35;;;27.10;43.20;;;;;;5105119;27;45494;-73
2023/10/09 14:01:26;;;;;;;6.25;3.08;;;27.00;43.20;;;;;;5104979;27;45442;-71
2023/10/09 14:03:55;;;;;;;6.82;2.65;;;27.00;43.30;;;;;;5105271;27;45449;-73
2023/10/09 14:06:30;;;;;;;6.43;2.20;;;27.00;43.50;;;;;;5104514;27;45473;-73
2023/10/09 14:08:59;;;;;;;6.93;2.03;;;27.00;43.50;;;;;;5105471;27;45470;-71
2023/10/09 14:11:26;;;;;;;10.45;2.40;;;27.00;43.30;;;;;;5107461;27;45386;-71
2023/10/09 14:13:53;;;;;;;13.05;2.60;;;26.90;43.30;;;;;;5106011;27;45349;-74